»·PEaware :: N1416E KEUG-KRDM

N1416E :: KEUG-KRDM

FLIGHT INFORMATION

Flight Status: Arrived
Operator: Privately registered:
United States
More flights under this callsign
Pilot: Marcus W. (21041)
Aircraft: CESSNA 172 SKYHAWK
(C172)
More flights by this aircraft type
Origin: KEUG Mahlon Sweet
United States
Destination: KRDM Roberts
United States
More flights between these airports :: More routes between these airports
Route: +EUGENE1 EUG V269 DSD
File this flight plan on PilotEdge
Remarks:
Altitude:
(Current/Filed)
7,000ft
Speed:
(Current/Filed)
115kts
Departed: 10-Feb-19 08:19 PM
Arrived: 10-Feb-19 10:02 PM
Distance/Time
Traveled:
89nm/1:43
Distance/Time
To Go:
Arrived

Flight Plot

Page will automatically refresh every two minutes.

Flight plan parsing failed; only flown route is shown


Map Options




Map Legend


Flown Route
Filed Route
Departure Airport
Arrival Airport
Navaid (VOR, NDB)
Fix

Horizontal Profiles

Position Reports

Time Latitude Longitude Heading Altitude Ground
Speed
10-Feb-19 19:46 44.111715 -123.214616 179 378ft 0kts
10-Feb-19 19:47 44.111715 -123.214616 179 378ft 0kts
10-Feb-19 19:48 44.111715 -123.214616 179 378ft 0kts
10-Feb-19 19:49 44.111715 -123.214616 179 378ft 0kts
10-Feb-19 19:50 44.111715 -123.214616 179 378ft 0kts
10-Feb-19 19:51 44.111715 -123.214616 179 378ft 0kts
10-Feb-19 19:52 44.111715 -123.214616 179 378ft 0kts
10-Feb-19 19:53 44.111715 -123.214616 179 378ft 0kts
10-Feb-19 19:54 44.111715 -123.214616 179 378ft 0kts
10-Feb-19 19:55 44.111715 -123.214616 179 378ft 0kts
10-Feb-19 19:56 44.111715 -123.214616 179 378ft 0kts
10-Feb-19 19:57 44.111715 -123.214616 179 378ft 0kts
10-Feb-19 19:58 44.111715 -123.214616 179 378ft 0kts
10-Feb-19 19:59 44.111715 -123.214616 179 378ft 0kts
10-Feb-19 20:00 44.111715 -123.214616 179 378ft 0kts
10-Feb-19 20:01 44.111715 -123.214616 179 378ft 0kts
10-Feb-19 20:02 44.111715 -123.214616 179 378ft 0kts
10-Feb-19 20:03 44.111715 -123.214616 179 378ft 0kts
10-Feb-19 20:05 44.111674 -123.215423 346 378ft 1kts
10-Feb-19 20:06 44.111848 -123.215575 297 378ft 0kts
10-Feb-19 20:07 44.111848 -123.215575 297 378ft 0kts
10-Feb-19 20:08 44.111848 -123.215575 297 378ft 0kts
10-Feb-19 20:09 44.111848 -123.215575 297 378ft 0kts
10-Feb-19 20:10 44.111876 -123.215677 283 378ft 4kts
10-Feb-19 20:11 44.114492 -123.216928 359 378ft 15kts
10-Feb-19 20:12 44.119134 -123.216980 0 378ft 17kts
10-Feb-19 20:13 44.124172 -123.217069 0 378ft 18kts
10-Feb-19 20:14 44.129364 -123.217131 357 378ft 18kts
10-Feb-19 20:15 44.134152 -123.217187 359 378ft 12kts
10-Feb-19 20:16 44.135309 -123.217868 272 378ft 0kts
10-Feb-19 20:17 44.135309 -123.217868 271 378ft 0kts
10-Feb-19 20:18 44.135309 -123.217868 271 378ft 0kts
10-Feb-19 20:19 44.133171 -123.219108 180 378ft 52kts
10-Feb-19 20:20 44.112721 -123.219297 177 1170ft 78kts
10-Feb-19 20:21 44.091333 -123.219496 179 2055ft 78kts
10-Feb-19 20:22 44.069587 -123.217686 184 2885ft 79kts
10-Feb-19 20:23 44.047564 -123.216970 175 3660ft 80kts
10-Feb-19 20:24 44.044498 -123.238307 356 4319ft 87kts
10-Feb-19 20:25 44.065446 -123.226265 14 5062ft 80kts
10-Feb-19 20:25 44.083863 -123.219495 8 5580ft 84kts
10-Feb-19 20:26 44.106748 -123.215585 9 6223ft 82kts
10-Feb-19 20:28 44.128527 -123.199424 77 6923ft 80kts
10-Feb-19 20:29 44.132097 -123.167080 68 7415ft 87kts
10-Feb-19 20:29 44.138906 -123.140990 73 7857ft 87kts
10-Feb-19 20:30 44.145854 -123.109130 67 8371ft 86kts
10-Feb-19 20:31 44.152405 -123.076718 77 8828ft 88kts
10-Feb-19 20:33 44.160307 -123.038642 71 9347ft 88kts
10-Feb-19 20:33 44.165666 -123.011187 81 9753ft 88kts
10-Feb-19 20:34 44.173362 -122.978478 67 10216ft 89kts
10-Feb-19 20:35 44.182120 -122.945996 66 10670ft 90kts
10-Feb-19 20:36 44.186711 -122.910472 89 10944ft 107kts
10-Feb-19 20:37 44.191555 -122.866702 74 11023ft 120kts
10-Feb-19 20:38 44.202259 -122.823183 72 11016ft 118kts
10-Feb-19 20:39 44.212404 -122.780171 71 11031ft 115kts
10-Feb-19 20:40 44.221515 -122.737152 73 11030ft 115kts
10-Feb-19 20:41 44.231828 -122.694617 73 11025ft 115kts
10-Feb-19 20:42 44.240083 -122.651305 76 11029ft 115kts
10-Feb-19 20:43 44.243481 -122.625253 74 11028ft 115kts
10-Feb-19 20:44 44.254281 -122.582905 69 11028ft 115kts
10-Feb-19 20:45 44.263930 -122.540112 72 11003ft 115kts
10-Feb-19 20:46 44.273993 -122.497652 72 10996ft 113kts
10-Feb-19 20:47 44.281316 -122.454563 79 11011ft 111kts
10-Feb-19 20:48 44.288752 -122.412114 78 11023ft 112kts
10-Feb-19 20:49 44.296248 -122.369713 73 11040ft 112kts
10-Feb-19 20:50 44.306673 -122.328400 66 11060ft 112kts
10-Feb-19 20:51 44.316278 -122.286123 75 11032ft 114kts
10-Feb-19 20:52 44.327185 -122.244386 67 11011ft 115kts
10-Feb-19 20:53 44.335004 -122.201148 75 10993ft 114kts
10-Feb-19 20:54 44.344664 -122.158602 65 10974ft 115kts
10-Feb-19 20:55 44.355254 -122.116750 87 10949ft 115kts
10-Feb-19 20:56 44.346332 -122.073720 109 10943ft 113kts
10-Feb-19 20:57 44.335191 -122.032879 91 10893ft 116kts
10-Feb-19 20:58 44.333706 -121.989507 90 10997ft 109kts
10-Feb-19 20:59 44.337271 -121.948013 92 11079ft 108kts
10-Feb-19 21:00 44.334923 -121.904889 95 11063ft 113kts
10-Feb-19 21:01 44.328577 -121.861000 105 10947ft 122kts
10-Feb-19 21:02 44.316731 -121.818615 109 10963ft 113kts
10-Feb-19 21:03 44.311141 -121.775461 94 10984ft 113kts
10-Feb-19 21:04 44.308320 -121.731910 97 11005ft 112kts
10-Feb-19 21:05 44.305238 -121.688199 93 11016ft 112kts
10-Feb-19 21:06 44.297722 -121.645601 103 11031ft 112kts
10-Feb-19 21:07 44.292104 -121.602543 99 11038ft 112kts
10-Feb-19 21:08 44.285881 -121.559512 100 11051ft 112kts
10-Feb-19 21:09 44.280993 -121.516154 99 11064ft 113kts
10-Feb-19 21:10 44.276702 -121.472541 96 11053ft 115kts
10-Feb-19 21:11 44.270100 -121.428733 104 11020ft 115kts
10-Feb-19 21:12 44.263806 -121.384937 100 11000ft 115kts
10-Feb-19 21:13 44.254461 -121.341902 106 10972ft 115kts
10-Feb-19 21:14 44.238725 -121.310232 195 10884ft 118kts
10-Feb-19 21:15 44.207153 -121.316499 182 10867ft 116kts
10-Feb-19 21:16 44.175857 -121.322322 191 10937ft 109kts
10-Feb-19 21:17 44.145276 -121.326147 184 10992ft 109kts
10-Feb-19 21:18 44.118619 -121.338029 171 11040ft 106kts
10-Feb-19 21:19 44.088632 -121.340703 184 11106ft 108kts
10-Feb-19 21:20 44.057815 -121.344413 183 11101ft 113kts
10-Feb-19 21:21 44.025521 -121.349410 189 10972ft 119kts
10-Feb-19 21:22 43.993867 -121.356789 190 10995ft 115kts
10-Feb-19 21:23 43.962351 -121.363821 186 10992ft 114kts
10-Feb-19 21:24 43.930584 -121.366525 180 10986ft 114kts
10-Feb-19 21:25 43.899178 -121.372711 191 10989ft 113kts
10-Feb-19 21:26 43.885320 -121.343417 87 10411ft 128kts
10-Feb-19 21:27 43.883361 -121.293053 94 8503ft 132kts
10-Feb-19 21:28 43.889889 -121.246293 70 7685ft 110kts
10-Feb-19 21:29 43.894920 -121.204794 88 7717ft 111kts
10-Feb-19 21:30 43.898972 -121.161758 72 7739ft 117kts
10-Feb-19 21:31 43.911174 -121.120585 62 7791ft 115kts
10-Feb-19 21:32 43.925079 -121.080471 67 7552ft 117kts
10-Feb-19 21:33 43.937107 -121.039673 80 7096ft 113kts
10-Feb-19 21:34 43.953241 -121.002403 48 7411ft 114kts
10-Feb-19 21:35 43.975421 -120.971151 49 7638ft 116kts
10-Feb-19 21:36 43.995035 -120.937497 53 7708ft 116kts
10-Feb-19 21:37 44.018639 -120.907402 32 7715ft 116kts
10-Feb-19 21:38 44.046572 -120.885167 29 7718ft 116kts
10-Feb-19 21:39 44.073773 -120.861217 34 7712ft 116kts
10-Feb-19 21:40 44.100828 -120.835728 32 7216ft 119kts
10-Feb-19 21:41 44.130891 -120.820898 15 7055ft 115kts
10-Feb-19 21:42 44.161232 -120.810454 1 7086ft 113kts
10-Feb-19 21:43 44.191497 -120.802106 8 7158ft 111kts
10-Feb-19 21:44 44.221849 -120.794581 7 7184ft 112kts
10-Feb-19 21:45 44.252775 -120.793139 359 7169ft 111kts
10-Feb-19 21:46 44.283121 -120.794278 354 7154ft 106kts
10-Feb-19 21:47 44.312873 -120.799652 353 7136ft 104kts
10-Feb-19 21:48 44.341560 -120.809189 341 7102ft 106kts
10-Feb-19 21:49 44.369537 -120.820534 346 7120ft 104kts
10-Feb-19 21:50 44.379950 -120.846809 233 7044ft 99kts
10-Feb-19 21:51 44.364695 -120.881463 243 6419ft 104kts
10-Feb-19 21:52 44.351138 -120.917285 239 5843ft 103kts
10-Feb-19 21:53 44.336234 -120.950721 239 5269ft 88kts
10-Feb-19 21:54 44.324932 -120.981759 238 5113ft 84kts
10-Feb-19 21:55 44.310932 -121.007431 244 5044ft 81kts
10-Feb-19 21:56 44.301748 -121.035036 241 4841ft 82kts
10-Feb-19 21:57 44.290955 -121.062555 240 4398ft 80kts
10-Feb-19 21:58 44.279291 -121.088940 238 3943ft 74kts
10-Feb-19 21:59 44.269809 -121.111856 242 3516ft 68kts
10-Feb-19 22:00 44.260609 -121.134498 241 3174ft 67kts
10-Feb-19 22:01 44.255091 -121.148117 243 3081ft 16kts
10-Feb-19 22:02 44.252736 -121.153897 240 3081ft 23kts
10-Feb-19 22:03 44.252366 -121.157514 330 3081ft 0kts

Navigation Log

Ident Type
Flight plan parsing failed, navigation log unavailable